Time;durP1;ratioP1;P1;durP2;ratioP2;P2;SDS_P1;SDS_P2;PMS_P1;PMS_P2;Temp;Humidity;BMP_temperature;BMP_pressure;BME280_temperature;BME280_humidity;BME280_pressure;Samples;Min_cycle;Max_cycle;Signal;HPM_P1;HPM_P2
2022/03/23 00:01:29;;;;;;;15.27;11.97;;;0.90;99.90;;;;;;5065806;28;20413;-85
2022/03/23 00:03:55;;;;;;;12.97;11.47;;;0.90;99.90;;;;;;5061364;28;20379;-85
2022/03/23 00:06:20;;;;;;;15.35;11.77;;;0.90;99.90;;;;;;5053413;28;20407;-85
2022/03/23 00:08:46;;;;;;;14.63;11.88;;;0.90;99.90;;;;;;5057544;28;20472;-84
2022/03/23 00:11:12;;;;;;;15.30;11.80;;;0.80;99.90;;;;;;5054136;28;20418;-84
2022/03/23 00:13:38;;;;;;;13.60;11.43;;;0.80;99.90;;;;;;5052700;28;20471;-84
2022/03/23 00:16:04;;;;;;;15.40;12.33;;;0.70;99.90;;;;;;5053935;28;20472;-84
2022/03/23 00:18:30;;;;;;;15.40;12.27;;;0.80;99.90;;;;;;5053596;28;20418;-84
2022/03/23 00:20:56;;;;;;;15.23;12.50;;;0.70;99.90;;;;;;5033339;28;20767;-84
2022/03/23 00:23:21;;;;;;;15.05;12.18;;;0.70;99.90;;;;;;5033534;28;20748;-84
2022/03/23 00:25:47;;;;;;;16.55;12.27;;;0.60;99.90;;;;;;5041559;28;20467;-85
2022/03/23 00:28:13;;;;;;;17.08;12.85;;;0.60;99.90;;;;;;5052014;28;20422;-84
2022/03/23 00:30:39;;;;;;;15.40;12.18;;;0.60;99.90;;;;;;5053418;28;20461;-84
2022/03/23 00:33:05;;;;;;;16.27;12.98;;;0.60;99.90;;;;;;5053725;28;20384;-84
2022/03/23 00:35:31;;;;;;;14.45;12.25;;;0.50;99.90;;;;;;5051956;28;20421;-84
2022/03/23 00:37:58;;;;;;;16.17;12.63;;;0.50;99.90;;;;;;5052984;28;20491;-84
2022/03/23 00:40:28;;;;;;;15.07;12.30;;;0.40;99.90;;;;;;5056844;28;20380;-84
2022/03/23 00:42:56;;;;;;;16.08;13.02;;;0.40;99.90;;;;;;5054824;28;20408;-84
2022/03/23 00:45:21;;;;;;;15.80;13.65;;;0.40;99.90;;;;;;5054103;28;20965;-85
2022/03/23 00:47:48;;;;;;;16.52;13.50;;;0.40;99.90;;;;;;5056479;28;20372;-84
2022/03/23 00:50:14;;;;;;;15.90;13.53;;;0.40;99.90;;;;;;5054343;28;20774;-84
2022/03/23 00:52:40;;;;;;;17.35;14.15;;;0.40;99.90;;;;;;5055056;28;20404;-84
2022/03/23 00:55:10;;;;;;;16.55;14.02;;;0.30;99.90;;;;;;5056027;28;20481;-84
2022/03/23 00:57:36;;;;;;;16.37;14.47;;;0.30;99.90;;;;;;5054644;28;20435;-84
2022/03/23 01:00:06;;;;;;;15.55;13.95;;;0.30;99.90;;;;;;5057662;28;20380;-84
2022/03/23 01:02:34;;;;;;;15.88;14.15;;;0.30;99.90;;;;;;5056060;28;20396;-84
2022/03/23 01:05:00;;;;;;;16.08;13.55;;;0.30;99.90;;;;;;5056450;28;20828;-84
2022/03/23 01:07:26;;;;;;;16.38;13.60;;;0.30;99.90;;;;;;5057996;28;20482;-85
2022/03/23 01:09:51;;;;;;;15.93;13.73;;;0.40;99.90;;;;;;5059712;28;20418;-84
2022/03/23 01:12:17;;;;;;;15.53;13.73;;;0.40;99.90;;;;;;5061395;28;20378;-84
2022/03/23 01:14:42;;;;;;;16.17;13.93;;;0.30;99.90;;;;;;5059579;28;20372;-84
2022/03/23 01:17:09;;;;;;;18.60;15.70;;;0.30;99.90;;;;;;5060682;28;20480;-84
2022/03/23 01:19:34;;;;;;;17.27;14.70;;;0.40;99.90;;;;;;5060793;28;20486;-84
2022/03/23 01:22:00;;;;;;;17.93;14.10;;;0.40;99.90;;;;;;5062737;28;20793;-85
2022/03/23 01:24:26;;;;;;;14.90;13.30;;;0.30;99.90;;;;;;5062883;28;20430;-84
2022/03/23 01:26:51;;;;;;;15.63;12.83;;;0.20;99.90;;;;;;5061353;28;20372;-84
2022/03/23 01:29:17;;;;;;;15.43;13.20;;;0.20;99.90;;;;;;5057357;28;20391;-84
2022/03/23 01:31:43;;;;;;;16.10;14.38;;;0.20;99.90;;;;;;5057538;28;20913;-84
2022/03/23 01:34:08;;;;;;;15.55;13.75;;;0.20;99.90;;;;;;5057519;28;20380;-84
2022/03/23 01:36:34;;;;;;;17.15;14.32;;;0.20;99.90;;;;;;5058766;28;20770;-84
2022/03/23 01:39:00;;;;;;;18.40;15.13;;;0.20;99.90;;;;;;5058931;28;20388;-84
2022/03/23 01:41:26;;;;;;;16.23;13.13;;;0.20;99.90;;;;;;5060586;28;20391;-84
2022/03/23 01:43:51;;;;;;;16.20;13.90;;;0.10;99.90;;;;;;5061223;28;20380;-84
2022/03/23 01:46:18;;;;;;;15.88;13.57;;;0.10;99.90;;;;;;5060531;28;20394;-84
2022/03/23 01:48:45;;;;;;;17.13;13.93;;;0.10;99.90;;;;;;5060665;28;20381;-84
2022/03/23 01:51:12;;;;;;;17.60;14.48;;;0.00;99.90;;;;;;5051214;28;20490;-84
2022/03/23 01:53:39;;;;;;;15.90;14.23;;;0.10;99.90;;;;;;5051776;28;20404;-83
2022/03/23 01:56:05;;;;;;;16.33;14.63;;;0.10;99.90;;;;;;5051813;28;20865;-84
2022/03/23 01:58:31;;;;;;;15.57;13.90;;;0.10;99.90;;;;;;5050769;28;20391;-83
2022/03/23 02:00:57;;;;;;;18.38;14.73;;;0.10;99.90;;;;;;5054559;28;20869;-84
2022/03/23 02:03:22;;;;;;;16.93;14.87;;;0.00;99.90;;;;;;5053087;28;20539;-84
2022/03/23 02:05:48;;;;;;;21.08;16.52;;;0.00;99.90;;;;;;5052930;28;20376;-84
2022/03/23 02:08:15;;;;;;;22.23;17.13;;;0.10;99.90;;;;;;5052148;28;20797;-84
2022/03/23 02:10:41;;;;;;;18.05;16.05;;;0.10;99.90;;;;;;5052653;28;20391;-84
2022/03/23 02:13:09;;;;;;;17.98;16.02;;;0.10;99.90;;;;;;5051106;28;20383;-84
2022/03/23 02:15:35;;;;;;;19.60;16.77;;;0.10;99.90;;;;;;5051389;28;20388;-84
2022/03/23 02:18:01;;;;;;;19.10;16.05;;;0.00;99.90;;;;;;5053262;28;20388;-84
2022/03/23 02:20:27;;;;;;;20.77;16.60;;;0.00;99.90;;;;;;5056352;28;20372;-84
2022/03/23 02:22:53;;;;;;;20.45;18.05;;;-0.10;99.90;;;;;;5057944;28;20468;-84
2022/03/23 02:25:22;;;;;;;18.27;16.17;;;-0.10;99.90;;;;;;5057775;28;20834;-84
2022/03/23 02:27:48;;;;;;;19.27;16.13;;;-0.20;99.90;;;;;;5056528;28;20376;-84
2022/03/23 02:30:14;;;;;;;18.83;16.67;;;-0.20;99.90;;;;;;5057264;28;20414;-84
2022/03/23 02:32:40;;;;;;;19.23;16.85;;;-0.20;99.90;;;;;;5057392;28;20415;-85
2022/03/23 02:35:07;;;;;;;18.80;16.73;;;-0.30;99.90;;;;;;5056850;28;20390;-84
2022/03/23 02:37:35;;;;;;;22.17;18.55;;;-0.30;99.90;;;;;;5057868;28;20406;-84
2022/03/23 02:40:01;;;;;;;18.77;16.85;;;-0.40;99.90;;;;;;5058226;28;20372;-84
2022/03/23 02:42:26;;;;;;;18.38;16.17;;;-0.40;99.90;;;;;;5058772;28;20426;-84
2022/03/23 02:44:53;;;;;;;20.40;17.35;;;-0.40;99.90;;;;;;5058029;28;20908;-84
2022/03/23 02:47:18;;;;;;;19.17;17.02;;;-0.30;99.90;;;;;;5055876;28;20384;-84
2022/03/23 02:49:44;;;;;;;19.90;17.50;;;-0.40;99.90;;;;;;5055328;28;20387;-84
2022/03/23 02:52:10;;;;;;;21.30;17.57;;;-0.30;99.90;;;;;;5055018;28;20403;-84
2022/03/23 03:03:15;;;;;;;19.80;17.45;;;-0.40;99.90;;;;;;5032650;28;20376;-85
2022/03/23 03:05:41;;;;;;;20.17;17.80;;;-0.30;99.90;;;;;;5031672;28;20912;-84
2022/03/23 03:10:51;;;;;;;21.20;17.48;;;-0.40;99.90;;;;;;5051580;28;20547;-83
2022/03/23 03:13:16;;;;;;;21.03;17.47;;;-0.40;99.90;;;;;;5051668;28;20814;-83
2022/03/23 03:15:42;;;;;;;19.10;17.07;;;-0.50;99.90;;;;;;5050104;28;20438;-84
2022/03/23 03:18:07;;;;;;;21.52;17.35;;;-0.50;99.90;;;;;;5049667;28;20462;-84
2022/03/23 03:20:33;;;;;;;21.13;18.05;;;-0.50;99.90;;;;;;5049311;28;20392;-84
2022/03/23 03:22:58;;;;;;;28.33;18.00;;;-0.60;99.90;;;;;;5049310;28;20376;-84
2022/03/23 03:25:24;;;;;;;23.63;17.97;;;-0.60;99.90;;;;;;5050436;28;20372;-84
2022/03/23 03:27:50;;;;;;;21.43;17.77;;;-0.50;99.90;;;;;;5050881;28;20866;-84
2022/03/23 03:30:18;;;;;;;19.83;17.73;;;-0.60;99.90;;;;;;5054102;28;20395;-84
2022/03/23 03:32:45;;;;;;;20.50;17.88;;;-0.50;99.90;;;;;;5034976;28;20396;-84
2022/03/23 03:35:11;;;;;;;21.10;18.80;;;-0.40;99.90;;;;;;5034716;28;20803;-83
2022/03/23 03:37:37;;;;;;;22.33;19.03;;;-0.40;99.90;;;;;;5034970;28;20460;-84
2022/03/23 03:40:04;;;;;;;20.35;18.15;;;-0.40;99.90;;;;;;5033850;28;20369;-84
2022/03/23 03:42:30;;;;;;;22.85;19.20;;;-0.50;99.90;;;;;;5053215;28;20387;-84
2022/03/23 03:44:57;;;;;;;20.35;18.15;;;-0.40;99.90;;;;;;5058693;28;20948;-84
2022/03/23 03:47:24;;;;;;;20.60;18.05;;;-0.60;99.90;;;;;;5059034;28;20406;-84
2022/03/23 03:49:50;;;;;;;20.33;18.13;;;-0.70;99.90;;;;;;5061022;28;20395;-84
2022/03/23 03:52:16;;;;;;;19.65;17.55;;;-0.70;99.90;;;;;;5061770;28;20372;-84
2022/03/23 03:54:42;;;;;;;20.00;17.90;;;-0.80;99.90;;;;;;5057379;28;20458;-84
2022/03/23 03:57:08;;;;;;;21.20;18.80;;;-0.80;99.90;;;;;;5057886;28;20441;-84
2022/03/23 03:59:34;;;;;;;21.87;18.40;;;-0.80;99.90;;;;;;5060410;28;20797;-85
2022/03/23 04:02:00;;;;;;;20.65;18.45;;;-0.80;99.90;;;;;;5059058;28;20380;-84
2022/03/23 04:04:26;;;;;;;20.42;18.23;;;-0.90;99.90;;;;;;5059819;28;20375;-85
2022/03/23 04:06:52;;;;;;;22.60;19.00;;;-0.90;99.90;;;;;;5058477;28;20445;-84
2022/03/23 04:09:17;;;;;;;19.70;17.60;;;-0.90;99.90;;;;;;5057988;28;20426;-84
2022/03/23 04:11:43;;;;;;;23.10;19.10;;;-0.90;99.90;;;;;;5059579;28;20430;-84
2022/03/23 04:14:09;;;;;;;22.17;19.53;;;-0.80;99.90;;;;;;5060778;28;20457;-84
2022/03/23 04:16:34;;;;;;;23.63;20.17;;;-1.00;99.90;;;;;;5057726;28;20391;-84
2022/03/23 04:19:00;;;;;;;22.13;19.48;;;-1.00;99.90;;;;;;5059246;28;20376;-84
2022/03/23 04:21:27;;;;;;;22.08;19.38;;;-1.00;99.90;;;;;;5058887;28;20808;-84
2022/03/23 04:23:52;;;;;;;21.80;19.20;;;-0.90;99.90;;;;;;5057642;28;20418;-84
2022/03/23 04:26:18;;;;;;;21.73;19.38;;;-1.00;99.90;;;;;;5057659;28;20384;-84
2022/03/23 04:28:43;;;;;;;21.00;18.70;;;-1.00;99.90;;;;;;5057010;28;20422;-84
2022/03/23 04:31:09;;;;;;;22.25;19.63;;;-1.00;99.90;;;;;;5055159;28;20404;-85
2022/03/23 04:33:35;;;;;;;22.00;19.27;;;-1.10;99.90;;;;;;5056202;28;20426;-84
2022/03/23 04:36:00;;;;;;;22.90;19.40;;;-1.10;99.90;;;;;;5053923;28;20408;-85
2022/03/23 04:38:26;;;;;;;21.63;19.17;;;-1.10;99.90;;;;;;5055579;28;20376;-85
2022/03/23 04:40:53;;;;;;;30.37;20.53;;;-1.10;99.90;;;;;;5055714;28;20379;-85
2022/03/23 04:43:19;;;;;;;50.42;22.58;;;-1.20;99.90;;;;;;5056572;28;20928;-85
2022/03/23 04:45:44;;;;;;;37.67;21.23;;;-1.20;99.90;;;;;;5053731;28;20380;-84
2022/03/23 04:48:10;;;;;;;26.48;20.05;;;-1.20;99.90;;;;;;5056416;28;20796;-84
2022/03/23 04:50:36;;;;;;;28.50;19.85;;;-1.20;99.90;;;;;;5056530;28;20400;-85
2022/03/23 04:53:02;;;;;;;37.22;20.88;;;-1.20;99.90;;;;;;5057353;28;20388;-84
2022/03/23 04:55:27;;;;;;;40.28;20.75;;;-1.20;99.90;;;;;;5057470;28;20396;-84
2022/03/23 04:57:53;;;;;;;35.88;20.70;;;-1.20;99.90;;;;;;5055951;28;20903;-85
2022/03/23 05:00:21;;;;;;;39.53;21.13;;;-1.20;99.90;;;;;;5056666;28;20391;-84
2022/03/23 05:02:50;;;;;;;31.95;21.38;;;-1.20;99.90;;;;;;5055640;28;20388;-84
2022/03/23 05:05:16;;;;;;;27.60;20.43;;;-1.20;99.90;;;;;;5055647;28;20445;-84
2022/03/23 05:07:43;;;;;;;23.33;19.65;;;-1.20;99.90;;;;;;5054842;28;20383;-84
2022/03/23 05:10:12;;;;;;;22.65;20.27;;;-1.10;99.90;;;;;;5053290;28;20411;-84
2022/03/23 05:12:38;;;;;;;22.70;19.80;;;-1.00;99.90;;;;;;5056846;28;20418;-85
2022/03/23 05:15:06;;;;;;;20.50;17.50;;;-1.00;99.90;;;;;;5057894;28;20379;-85
2022/03/23 05:17:32;;;;;;;23.30;18.42;;;-1.00;99.90;;;;;;5060288;28;20479;-85
2022/03/23 05:19:58;;;;;;;19.48;17.42;;;-1.10;99.90;;;;;;5060068;28;20383;-84
2022/03/23 05:22:24;;;;;;;21.17;18.10;;;-1.20;99.90;;;;;;5058077;28;20932;-84
2022/03/23 05:24:50;;;;;;;21.17;18.30;;;-1.20;99.90;;;;;;5055194;28;20426;-85
2022/03/23 05:27:15;;;;;;;26.83;19.52;;;-1.20;99.90;;;;;;5055599;28;20500;-84
2022/03/23 05:29:43;;;;;;;25.10;19.25;;;-1.10;99.90;;;;;;5054601;28;20405;-85
2022/03/23 05:32:16;;;;;;;24.77;19.38;;;-1.10;99.90;;;;;;5055064;28;20422;-84
2022/03/23 05:34:48;;;;;;;27.20;21.30;;;-0.90;99.90;;;;;;5056313;28;20429;-82
2022/03/23 05:37:15;;;;;;;27.85;21.33;;;-1.00;99.90;;;;;;5053645;28;20482;-83
2022/03/23 05:39:41;;;;;;;24.67;20.30;;;-0.90;99.90;;;;;;5052647;28;20383;-84
2022/03/23 05:42:08;;;;;;;24.33;20.17;;;-0.70;99.90;;;;;;5053237;28;20435;-82
2022/03/23 05:44:34;;;;;;;23.08;19.92;;;-0.60;99.90;;;;;;5053089;28;20406;-83
2022/03/23 05:47:00;;;;;;;23.35;19.33;;;-0.50;99.90;;;;;;5055116;28;20417;-85
2022/03/23 05:49:27;;;;;;;22.95;19.27;;;-0.50;99.90;;;;;;5055680;28;20380;-85
2022/03/23 05:51:52;;;;;;;22.90;20.10;;;-0.40;99.90;;;;;;5052159;28;20415;-85
2022/03/23 05:54:18;;;;;;;22.57;19.57;;;-0.30;99.90;;;;;;5055286;28;20392;-85
2022/03/23 05:56:44;;;;;;;20.20;17.98;;;-0.30;99.90;;;;;;5056709;28;20537;-85
2022/03/23 05:59:10;;;;;;;38.65;19.95;;;-0.20;99.90;;;;;;5033823;28;20416;-86
2022/03/23 06:01:36;;;;;;;37.63;19.30;;;0.00;99.90;;;;;;5042707;28;20420;-85
2022/03/23 06:04:08;;;;;;;37.65;19.90;;;0.20;99.90;;;;;;5055086;28;20412;-83
2022/03/23 06:06:34;;;;;;;40.40;20.50;;;0.40;99.90;;;;;;5052377;28;20470;-85
2022/03/23 06:09:03;;;;;;;43.07;19.63;;;0.60;99.90;;;;;;5052789;28;20464;-83
2022/03/23 06:11:29;;;;;;;110.30;26.00;;;0.90;99.90;;;;;;5049678;28;20418;-83
2022/03/23 06:13:57;;;;;;;65.97;22.48;;;1.10;99.90;;;;;;5053450;28;20383;-86
2022/03/23 06:16:26;;;;;;;67.38;22.55;;;1.30;99.90;;;;;;5058458;28;20378;-85
2022/03/23 06:18:52;;;;;;;68.10;22.63;;;1.60;99.90;;;;;;5051677;28;20924;-85
2022/03/23 06:21:18;;;;;;;45.08;21.90;;;1.80;99.90;;;;;;5060015;28;20469;-84
2022/03/23 06:23:45;;;;;;;87.77;24.53;;;1.90;99.90;;;;;;5056034;28;20411;-83
2022/03/23 06:26:10;;;;;;;93.57;24.48;;;1.90;99.90;;;;;;5046543;28;20442;-84
2022/03/23 06:28:36;;;;;;;40.65;19.92;;;2.10;99.90;;;;;;5046992;28;20385;-84
2022/03/23 06:31:02;;;;;;;34.08;20.38;;;2.30;99.90;;;;;;5041700;28;20405;-83
2022/03/23 06:33:28;;;;;;;26.10;19.77;;;2.50;99.90;;;;;;5040951;28;20399;-84
2022/03/23 06:35:53;;;;;;;24.63;20.15;;;2.70;99.90;;;;;;5041398;28;20389;-83
2022/03/23 06:38:19;;;;;;;24.02;20.08;;;2.80;99.90;;;;;;5040150;28;20796;-84
2022/03/23 06:40:45;;;;;;;23.70;19.83;;;2.90;99.90;;;;;;5042846;28;20422;-83
2022/03/23 06:43:11;;;;;;;23.80;19.67;;;3.00;99.90;;;;;;5041853;28;20477;-84
2022/03/23 06:45:40;;;;;;;22.05;19.67;;;3.10;99.90;;;;;;5040174;28;20378;-83
2022/03/23 06:48:06;;;;;;;26.15;20.42;;;3.20;99.90;;;;;;5041628;28;20464;-83
2022/03/23 06:50:32;;;;;;;28.55;19.65;;;3.40;99.90;;;;;;5043312;28;20921;-84
2022/03/23 06:52:57;;;;;;;186.90;33.90;;;3.70;99.90;;;;;;5042153;28;20459;-83
2022/03/23 06:55:23;;;;;;;69.90;23.13;;;4.20;99.90;;;;;;5042569;28;20435;-84
2022/03/23 06:57:49;;;;;;;37.67;21.73;;;4.50;99.90;;;;;;5038384;28;20443;-84
2022/03/23 07:00:15;;;;;;;101.22;25.65;;;4.80;99.90;;;;;;5032302;28;20772;-84
2022/03/23 07:02:45;;;;;;;191.00;35.33;;;5.10;99.90;;;;;;5034062;28;20472;-83
2022/03/23 07:05:12;;;;;;;31.52;23.27;;;5.30;99.90;;;;;;5033836;28;20378;-84
2022/03/23 07:07:38;;;;;;;34.60;22.60;;;5.70;99.90;;;;;;5033295;28;20468;-83
2022/03/23 07:10:05;;;;;;;67.57;26.08;;;5.90;99.90;;;;;;5031887;28;20386;-83
2022/03/23 07:12:31;;;;;;;146.77;32.88;;;6.20;99.90;;;;;;5033818;28;20377;-83
2022/03/23 07:14:56;;;;;;;81.43;26.17;;;6.50;99.90;;;;;;5039836;28;20892;-82
2022/03/23 07:17:23;;;;;;;46.10;23.20;;;6.70;99.90;;;;;;5043743;28;20391;-82
2022/03/23 07:19:49;;;;;;;31.13;21.83;;;7.00;99.90;;;;;;5044252;28;20783;-83
2022/03/23 07:22:15;;;;;;;29.08;22.55;;;7.40;99.90;;;;;;5042014;28;20381;-83
2022/03/23 07:24:41;;;;;;;31.20;23.42;;;7.50;99.50;;;;;;5042379;28;20429;-83
2022/03/23 07:27:08;;;;;;;29.15;22.50;;;7.70;98.40;;;;;;5046553;28;20489;-82
2022/03/23 07:29:35;;;;;;;28.47;22.10;;;8.00;97.80;;;;;;5043942;28;20378;-83
2022/03/23 07:32:01;;;;;;;27.50;22.63;;;8.50;96.40;;;;;;5041510;28;20502;-83
2022/03/23 07:34:28;;;;;;;33.00;22.63;;;8.50;96.60;;;;;;5038126;28;21859;-83
2022/03/23 07:36:54;;;;;;;30.10;22.67;;;8.60;96.10;;;;;;5040622;28;20441;-84
2022/03/23 07:39:25;;;;;;;49.90;24.52;;;8.70;95.80;;;;;;5042200;28;20377;-84
2022/03/23 07:41:52;;;;;;;28.42;22.30;;;8.90;95.50;;;;;;5038476;28;20409;-83
2022/03/23 07:44:18;;;;;;;31.42;22.50;;;9.10;94.70;;;;;;5041832;28;20369;-82
2022/03/23 07:46:48;;;;;;;30.83;22.43;;;9.20;94.60;;;;;;5039687;28;20502;-83
2022/03/23 07:49:15;;;;;;;31.48;22.25;;;9.40;94.40;;;;;;5036753;28;20416;-83
2022/03/23 07:51:41;;;;;;;27.60;22.60;;;9.70;94.20;;;;;;5037377;28;20895;-82
2022/03/23 07:54:08;;;;;;;27.42;22.15;;;9.80;93.60;;;;;;5038341;28;20387;-83
2022/03/23 07:56:34;;;;;;;30.83;22.80;;;9.90;93.40;;;;;;5036647;28;20410;-84
2022/03/23 07:59:00;;;;;;;29.20;22.70;;;10.30;92.40;;;;;;5042912;28;20375;-84
2022/03/23 08:01:26;;;;;;;40.07;23.63;;;10.40;92.30;;;;;;5043349;28;20460;-84
2022/03/23 08:03:51;;;;;;;30.17;21.92;;;10.70;91.10;;;;;;5040255;28;20390;-83
2022/03/23 08:06:17;;;;;;;28.25;21.65;;;11.00;90.20;;;;;;5040826;28;20381;-83
2022/03/23 08:08:43;;;;;;;26.23;21.97;;;11.00;90.70;;;;;;5032859;28;20440;-83
2022/03/23 08:11:09;;;;;;;24.42;20.65;;;11.20;90.00;;;;;;5030931;28;20409;-84
2022/03/23 08:13:35;;;;;;;25.55;21.65;;;11.30;90.20;;;;;;5035527;28;20389;-84
2022/03/23 08:16:01;;;;;;;26.80;21.08;;;11.50;90.20;;;;;;5041159;28;20380;-85
2022/03/23 08:18:27;;;;;;;26.42;20.50;;;11.80;88.00;;;;;;5043020;28;20780;-83
2022/03/23 08:20:52;;;;;;;26.33;21.60;;;11.80;89.10;;;;;;5044300;28;20399;-84
2022/03/23 08:23:19;;;;;;;25.70;21.58;;;12.10;86.20;;;;;;5044189;28;20376;-84
2022/03/23 08:25:46;;;;;;;155.48;31.05;;;12.20;86.10;;;;;;5047814;28;20426;-84
2022/03/23 08:28:14;;;;;;;34.75;21.73;;;12.30;86.40;;;;;;5046472;28;20407;-84
2022/03/23 08:30:40;;;;;;;26.38;20.83;;;12.40;85.00;;;;;;5046658;28;20415;-83
2022/03/23 08:33:07;;;;;;;33.33;21.25;;;12.40;84.10;;;;;;5049218;28;20426;-85
2022/03/23 08:35:35;;;;;;;26.15;20.73;;;12.40;83.50;;;;;;5049535;28;20746;-84
2022/03/23 08:38:01;;;;;;;25.25;20.80;;;12.60;82.90;;;;;;5045590;28;20386;-84
2022/03/23 08:40:27;;;;;;;27.20;21.08;;;12.80;83.40;;;;;;5043477;28;20456;-85
2022/03/23 08:42:52;;;;;;;45.17;23.45;;;13.00;80.50;;;;;;5045691;28;20435;-84
2022/03/23 08:45:18;;;;;;;30.33;22.38;;;13.00;80.00;;;;;;5046445;28;20814;-84
2022/03/23 08:47:45;;;;;;;24.83;20.17;;;13.10;82.90;;;;;;5046773;28;20411;-84
2022/03/23 08:50:12;;;;;;;25.50;21.33;;;13.30;81.60;;;;;;5046278;28;20399;-84
2022/03/23 08:52:39;;;;;;;31.42;21.25;;;13.70;80.20;;;;;;5043932;28;20385;-84
2022/03/23 08:55:09;;;;;;;30.75;23.20;;;13.90;79.40;;;;;;5045560;28;20379;-84
2022/03/23 08:57:36;;;;;;;29.52;22.17;;;14.10;78.30;;;;;;5073955;28;20888;-84
2022/03/23 09:00:05;;;;;;;27.30;21.95;;;14.00;80.50;;;;;;5045737;28;20383;-84
2022/03/23 09:02:31;;;;;;;117.72;27.73;;;14.10;76.90;;;;;;5047331;28;20505;-82
2022/03/23 09:04:56;;;;;;;32.50;23.17;;;14.20;79.70;;;;;;5042702;28;20455;-82
2022/03/23 09:07:22;;;;;;;31.20;22.80;;;14.40;75.10;;;;;;5045577;28;20407;-83
2022/03/23 09:09:48;;;;;;;27.75;22.13;;;14.30;78.00;;;;;;5049183;28;20478;-83
2022/03/23 09:12:13;;;;;;;30.13;23.23;;;14.20;75.70;;;;;;5043674;28;20758;-83
2022/03/23 09:14:40;;;;;;;26.57;22.70;;;14.20;76.70;;;;;;5047482;28;20383;-83
2022/03/23 09:17:07;;;;;;;28.38;22.73;;;14.30;76.00;;;;;;5048506;28;20434;-82
2022/03/23 09:19:33;;;;;;;54.88;24.10;;;14.30;76.40;;;;;;5045789;28;20403;-82
2022/03/23 09:21:59;;;;;;;31.67;22.88;;;14.40;75.80;;;;;;5044451;28;20384;-82
2022/03/23 09:24:28;;;;;;;29.05;22.58;;;14.60;75.70;;;;;;5041965;28;20483;-83
2022/03/23 09:26:55;;;;;;;45.10;24.15;;;14.60;74.00;;;;;;5042553;28;20395;-83
2022/03/23 09:29:21;;;;;;;29.20;22.95;;;14.50;73.90;;;;;;5039839;28;20378;-82
2022/03/23 09:31:47;;;;;;;33.38;23.77;;;14.60;73.80;;;;;;5040504;28;20465;-83
2022/03/23 09:34:13;;;;;;;34.20;22.42;;;14.70;74.10;;;;;;5045262;28;20382;-83
2022/03/23 09:39:22;;;;;;;28.80;22.97;;;15.40;73.50;;;;;;5041132;28;20443;-83
2022/03/23 09:41:48;;;;;;;75.37;27.17;;;15.40;72.70;;;;;;5043669;28;20463;-84
2022/03/23 09:44:14;;;;;;;30.65;24.00;;;15.30;74.90;;;;;;5040155;28;20393;-83
2022/03/23 09:46:41;;;;;;;31.25;23.75;;;15.70;71.10;;;;;;5039012;28;20391;-83
2022/03/23 09:49:07;;;;;;;29.35;24.50;;;15.50;69.90;;;;;;5040718;28;20470;-83
2022/03/23 09:51:34;;;;;;;33.27;23.83;;;15.40;70.30;;;;;;5037901;28;20511;-83
2022/03/23 09:54:01;;;;;;;30.13;24.13;;;15.50;71.30;;;;;;5042097;28;20392;-84
2022/03/23 09:56:27;;;;;;;29.45;24.23;;;15.50;71.00;;;;;;5043041;28;20531;-83
2022/03/23 09:58:53;;;;;;;30.87;24.10;;;15.60;71.50;;;;;;5042784;28;20423;-83
2022/03/23 10:01:28;;;;;;;33.60;24.70;;;;;;;;;;5041024;28;20378;-84
2022/03/23 10:04:12;;;;;;;26.48;22.40;;;;;;;;;;5040868;28;20907;-84
2022/03/23 10:06:57;;;;;;;27.70;23.20;;;16.00;86.40;;;;;;5040972;28;20376;-83
2022/03/23 10:09:26;;;;;;;29.58;23.42;;;16.40;91.10;;;;;;5041210;28;20405;-83
2022/03/23 10:12:10;;;;;;;29.55;24.45;;;;;;;;;;5037834;28;20397;-82
2022/03/23 10:15:14;;;;;;;30.48;23.75;;;16.40;68.70;;;;;;5037338;28;20895;-83
2022/03/23 10:18:17;;;;;;;117.18;32.50;;;16.50;68.70;;;;;;5038276;28;20490;-82
2022/03/23 10:20:42;;;;;;;29.67;23.33;;;16.50;70.00;;;;;;5041587;28;20402;-83
2022/03/23 10:23:08;;;;;;;35.50;24.73;;;16.10;69.90;;;;;;5039713;28;20924;-82
2022/03/23 10:25:34;;;;;;;32.05;24.50;;;16.20;71.70;;;;;;5041175;28;20381;-83
2022/03/23 10:27:59;;;;;;;27.13;23.63;;;16.30;71.70;;;;;;5039302;28;20412;-83
2022/03/23 10:30:36;;;;;;;44.13;26.23;;;16.70;71.30;;;;;;5044260;28;20427;-83
2022/03/23 10:33:02;;;;;;;29.08;24.92;;;16.80;69.50;;;;;;5041755;28;20399;-83
2022/03/23 10:35:40;;;;;;;29.58;23.60;;;16.60;70.00;;;;;;5039936;28;20795;-84
2022/03/23 10:38:21;;;;;;;30.23;23.70;;;16.80;69.80;;;;;;5072363;28;20909;-82
2022/03/23 10:40:50;;;;;;;32.83;23.20;;;17.10;62.60;;;;;;5037611;28;20530;-82
2022/03/23 10:43:19;;;;;;;27.40;21.70;;;17.00;64.40;;;;;;5037883;28;20492;-84
2022/03/23 10:45:45;;;;;;;27.67;22.52;;;16.90;62.90;;;;;;5039382;28;20593;-84
2022/03/23 10:48:16;;;;;;;28.00;22.00;;;16.90;64.70;;;;;;5037079;28;20480;-83
2022/03/23 10:50:57;;;;;;;33.17;23.80;;;16.90;64.80;;;;;;5040319;28;20962;-84
2022/03/23 10:53:49;;;;;;;45.97;24.58;;;16.90;66.90;;;;;;5043114;28;20384;-84
2022/03/23 10:56:16;;;;;;;30.23;24.95;;;17.00;65.50;;;;;;5040183;28;20399;-84
2022/03/23 10:58:41;;;;;;;33.37;23.87;;;17.10;64.90;;;;;;5039671;28;20500;-85
2022/03/23 11:01:09;;;;;;;43.05;26.17;;;17.10;66.10;;;;;;5037576;28;20576;-84
2022/03/23 11:03:39;;;;;;;29.17;23.75;;;17.10;68.30;;;;;;5040052;28;20397;-83
2022/03/23 11:06:07;;;;;;;31.88;25.92;;;17.20;66.30;;;;;;5038146;28;20406;-84
2022/03/23 11:08:33;;;;;;;33.40;25.60;;;;;;;;;;5040530;28;20396;-84
2022/03/23 11:16:47;;;;;;;31.08;23.88;;;17.60;62.60;;;;;;5044962;28;20757;-84
2022/03/23 11:19:13;;;;;;;28.67;23.83;;;17.60;61.90;;;;;;5039301;28;20504;-83
2022/03/23 11:22:00;;;;;;;32.23;24.53;;;17.60;63.40;;;;;;5039947;28;20877;-84
2022/03/23 11:24:28;;;;;;;29.38;23.98;;;17.50;65.50;;;;;;5039113;28;20387;-84
2022/03/23 11:26:57;;;;;;;33.83;24.05;;;17.50;64.90;;;;;;5039747;28;20391;-84
2022/03/23 11:29:23;;;;;;;31.30;24.47;;;17.50;64.60;;;;;;5041185;28;20402;-84
2022/03/23 11:31:52;;;;;;;29.02;23.70;;;17.50;64.30;;;;;;5040160;28;20437;-84
2022/03/23 11:34:23;;;;;;;34.25;25.65;;;17.70;63.60;;;;;;5042918;28;20391;-83
2022/03/23 11:36:54;;;;;;;29.60;25.30;;;17.60;64.60;;;;;;5039662;28;20395;-83
2022/03/23 11:39:21;;;;;;;32.40;24.23;;;17.50;65.30;;;;;;5037149;28;20947;-84
2022/03/23 11:41:50;;;;;;;30.75;25.15;;;17.40;64.60;;;;;;5038509;28;20463;-83
2022/03/23 11:44:17;;;;;;;28.77;23.55;;;17.40;64.80;;;;;;5040806;28;20431;-83
2022/03/23 11:46:45;;;;;;;27.73;23.13;;;17.40;63.10;;;;;;5048654;28;20419;-82
2022/03/23 11:49:35;;;;;;;50.03;25.10;;;17.50;61.00;;;;;;5039715;28;20426;-83
2022/03/23 11:52:07;;;;;;;27.58;21.38;;;17.60;62.60;;;;;;5042708;28;20401;-83
2022/03/23 11:57:56;;;;;;;29.97;22.83;;;17.70;60.70;;;;;;5047272;28;20412;-84
2022/03/23 12:00:26;;;;;;;27.52;22.42;;;17.80;62.40;;;;;;5043073;28;20402;-84
2022/03/23 12:02:55;;;;;;;28.83;22.73;;;17.70;61.80;;;;;;5040110;28;20498;-85
2022/03/23 12:05:32;;;;;;;27.88;23.48;;;17.60;62.30;;;;;;5043773;28;20895;-84
2022/03/23 12:07:58;;;;;;;27.42;23.67;;;17.50;62.20;;;;;;5042264;28;20390;-84
2022/03/23 12:10:31;;;;;;;25.40;22.55;;;17.70;61.10;;;;;;5043992;28;20448;-84
2022/03/23 12:12:57;;;;;;;25.60;22.77;;;17.70;59.50;;;;;;5043700;28;20441;-84
2022/03/23 12:15:25;;;;;;;25.90;21.60;;;17.80;59.20;;;;;;5043037;28;20466;-84
2022/03/23 12:17:54;;;;;;;29.02;22.13;;;17.80;59.90;;;;;;5041980;28;20387;-84
2022/03/23 12:20:30;;;;;;;34.30;22.90;;;18.10;60.10;;;;;;5043364;28;21228;-84
2022/03/23 12:23:13;;;;;;;57.38;23.80;;;18.10;59.70;;;;;;5045684;28;20870;-84
2022/03/23 12:26:03;;;;;;;25.40;21.25;;;18.10;59.90;;;;;;5043102;28;20389;-84
2022/03/23 12:28:43;;;;;;;92.30;27.02;;;18.00;59.00;;;;;;5043817;28;20421;-83
2022/03/23 12:31:13;;;;;;;27.58;21.52;;;17.80;59.20;;;;;;5044001;28;20426;-84
2022/03/23 12:33:58;;;;;;;36.03;23.40;;;;;;;;;;5044023;28;20455;-83
2022/03/23 12:36:56;;;;;;;25.58;21.98;;;;;;;;;;5041789;28;20938;-84
2022/03/23 12:39:27;;;;;;;26.85;21.27;;;;;;;;;;5075062;28;20376;-84
2022/03/23 12:41:53;;;;;;;25.10;21.48;;;;;;;;;;5041315;28;20382;-84
2022/03/23 12:44:27;;;;;;;29.80;22.25;;;;;;;;;;5044436;28;20867;-83
2022/03/23 12:46:53;;;;;;;28.75;23.20;;;;;;;;;;5044003;28;20389;-84
2022/03/23 12:57:50;;;;;;;25.52;21.33;;;;;;;;;;5044649;28;20912;-84
2022/03/23 13:00:35;;;;;;;29.15;23.80;;;;;;;;;;5043897;28;20754;-83
2022/03/23 13:03:07;;;;;;;26.38;23.17;;;;;;;;;;5041479;28;20446;-84
2022/03/23 13:05:33;;;;;;;27.15;22.50;;;;;;;;;;5041369;28;20407;-83
2022/03/23 13:08:00;;;;;;;25.70;22.15;;;;;;;;;;5041180;28;20931;-82
2022/03/23 13:10:26;;;;;;;28.27;22.30;;;;;;;;;;5040882;28;20401;-84